Time;durP1;ratioP1;P1;durP2;ratioP2;P2;SDS_P1;SDS_P2;PMS_P1;PMS_P2;Temp;Humidity;BMP_temperature;BMP_pressure;BME280_temperature;BME280_humidity;BME280_pressure;Samples;Min_cycle;Max_cycle;Signal;HPM_P1;HPM_P2
2023/09/08 00:00:22;;;;;;;20.88;18.95;;;;;;;18.58;100.00;101530.34;5033755;28;20060;-50
2023/09/08 00:02:47;;;;;;;22.10;19.98;;;;;;;18.58;100.00;101527.69;5033811;28;20057;-51
2023/09/08 00:05:13;;;;;;;21.13;19.13;;;;;;;18.24;100.00;101472.66;5033674;28;20033;-49
2023/09/08 00:07:38;;;;;;;21.52;19.17;;;;;;;18.50;100.00;101520.13;5013945;28;20076;-52
2023/09/08 00:10:04;;;;;;;21.98;19.77;;;;;;;18.42;100.00;101520.47;5026144;28;20043;-49
2023/09/08 00:12:29;;;;;;;22.67;20.67;;;;;;;18.37;100.00;101508.34;5033488;28;20037;-49
2023/09/08 00:14:54;;;;;;;20.55;18.65;;;;;;;18.39;100.00;101515.31;5033596;28;20063;-48
2023/09/08 00:17:20;;;;;;;22.13;19.92;;;;;;;18.34;100.00;101520.03;5033638;28;20124;-52
2023/09/08 00:19:45;;;;;;;21.00;19.10;;;;;;;18.38;100.00;101515.41;5033497;28;20029;-49
2023/09/08 00:22:10;;;;;;;20.35;18.45;;;;;;;18.29;100.00;101500.78;5031917;28;20041;-49
2023/09/08 00:24:36;;;;;;;20.35;18.45;;;;;;;17.96;100.00;101454.63;5033338;28;20044;-51
2023/09/08 00:27:01;;;;;;;19.73;18.02;;;;;;;17.85;100.00;101438.34;5017256;28;20045;-50
2023/09/08 00:29:27;;;;;;;20.08;18.08;;;;;;;18.03;100.00;101481.78;5047857;28;20040;-51
2023/09/08 00:31:52;;;;;;;20.42;18.58;;;;;;;17.87;100.00;101455.09;5033534;28;20560;-49
2023/09/08 00:34:17;;;;;;;21.10;18.88;;;;;;;18.25;100.00;101527.66;5033127;28;20041;-49
2023/09/08 00:36:43;;;;;;;19.77;17.73;;;;;;;18.23;100.00;101526.88;5023953;28;20117;-49
2023/09/08 00:39:08;;;;;;;20.92;18.75;;;;;;;17.74;100.00;101457.56;5033374;28;20057;-50
2023/09/08 00:41:34;;;;;;;18.58;16.77;;;;;;;18.18;100.00;101524.47;5046778;28;20115;-50
2023/09/08 00:43:59;;;;;;;21.40;19.13;;;;;;;18.15;100.00;101529.09;5019322;28;20117;-52
2023/09/08 00:46:27;;;;;;;21.23;19.23;;;;;;;17.90;100.00;101482.44;5025951;28;20062;-51
2023/09/08 00:48:53;;;;;;;20.27;18.35;;;;;;;18.12;100.00;101526.59;5027624;28;20124;-48
2023/09/08 00:51:18;;;;;;;20.33;18.52;;;;;;;17.92;100.00;101504.50;5034974;28;20101;-50
2023/09/08 00:53:44;;;;;;;20.67;18.77;;;;;;;17.98;100.00;101522.84;5027551;28;20450;-48
2023/09/08 00:56:10;;;;;;;20.52;18.38;;;;;;;17.65;100.00;101455.38;5032996;28;20124;-48
2023/09/08 00:58:35;;;;;;;21.63;19.38;;;;;;;17.96;100.00;101503.44;5048233;28;20423;-49
2023/09/08 01:01:01;;;;;;;20.35;18.45;;;;;;;17.63;100.00;101451.91;5044828;28;20069;-50
2023/09/08 01:03:26;;;;;;;21.95;20.05;;;;;;;18.02;100.00;101526.22;5048018;28;20037;-49
2023/09/08 01:05:52;;;;;;;21.15;18.98;;;;;;;17.99;100.00;101515.72;5038611;28;20033;-48
2023/09/08 01:08:18;;;;;;;21.30;19.17;;;;;;;17.99;100.00;101515.72;5048257;28;20061;-50
2023/09/08 01:10:43;;;;;;;20.77;18.80;;;;;;;17.98;100.00;101513.97;5042052;28;20033;-48
2023/09/08 01:13:09;;;;;;;21.88;19.75;;;;;;;17.56;100.00;101447.00;5009972;28;20127;-51
2023/09/08 01:15:34;;;;;;;21.38;19.40;;;;;;;17.19;100.00;101387.63;5027007;28;20033;-50
2023/09/08 01:18:00;;;;;;;22.05;19.85;;;;;;;17.94;100.00;101520.44;5018268;28;20030;-49
2023/09/08 01:20:46;;;;;;;22.60;20.35;;;;;;;17.88;100.00;101510.09;5012787;28;20619;-49
2023/09/08 01:23:21;;;;;;;24.02;21.65;;;;;;;17.80;100.00;101505.19;5000967;28;20037;-49
2023/09/08 01:26:10;;;;;;;22.55;20.38;;;;;;;17.84;100.00;101519.16;5015345;28;20049;-49
2023/09/08 01:28:37;;;;;;;25.35;22.77;;;;;;;17.78;100.00;101496.38;5024826;28;20036;-51
2023/09/08 01:31:02;;;;;;;24.52;22.13;;;;;;;17.93;100.00;101522.22;5010596;28;20506;-49
2023/09/08 01:33:27;;;;;;;24.98;22.52;;;;;;;17.78;100.00;101506.16;4994557;28;20049;-49
2023/09/08 01:35:53;;;;;;;24.45;22.08;;;;;;;17.69;100.00;101514.63;5025033;28;20037;-50
2023/09/08 01:38:21;;;;;;;25.02;22.65;;;;;;;17.33;100.00;101442.81;5034455;28;20093;-48
2023/09/08 01:40:46;;;;;;;22.23;20.30;;;;;;;17.75;100.00;101516.97;5012176;28;20356;-50
2023/09/08 01:43:12;;;;;;;25.50;22.90;;;;;;;17.70;100.00;101519.03;5012912;28;20045;-50
2023/09/08 01:45:37;;;;;;;24.90;22.50;;;;;;;17.63;100.00;101521.13;5027209;28;20033;-48
2023/09/08 01:48:03;;;;;;;24.98;22.63;;;;;;;17.52;100.00;101501.28;5031913;28;20514;-50
2023/09/08 01:50:28;;;;;;;25.05;22.58;;;;;;;17.59;100.00;101518.72;5024696;28;20049;-50
2023/09/08 01:52:53;;;;;;;26.70;24.05;;;;;;;17.55;100.00;101526.00;5014667;28;20049;-48
2023/09/08 01:55:20;;;;;;;27.00;24.30;;;;;;;17.15;100.00;101444.59;5037290;28;20033;-50
2023/09/08 01:57:46;;;;;;;28.30;25.50;;;;;;;17.19;100.00;101450.66;5051819;28;20536;-49
2023/09/08 02:00:12;;;;;;;28.95;26.15;;;;;;;17.53;100.00;101503.03;5030346;28;20033;-52
2023/09/08 02:02:37;;;;;;;27.38;24.73;;;;;;;17.22;100.00;101451.31;5030530;28;20041;-54
2023/09/08 02:05:03;;;;;;;28.58;25.45;;;;;;;17.52;100.00;101507.47;5029029;28;20102;-49
2023/09/08 02:07:29;;;;;;;28.27;25.33;;;;;;;17.15;100.00;101446.41;5011714;28;20561;-49
2023/09/08 02:09:54;;;;;;;25.40;23.00;;;;;;;17.48;100.00;101503.25;4994321;28;20030;-48
2023/09/08 02:12:19;;;;;;;26.73;24.17;;;;;;;17.43;100.00;101497.28;5001352;28;20413;-51
2023/09/08 02:14:45;;;;;;;26.90;24.30;;;;;;;17.51;100.00;101510.22;5013333;28;20045;-52
2023/09/08 02:17:10;;;;;;;27.70;24.80;;;;;;;17.48;100.00;101518.38;5037976;28;20407;-49
2023/09/08 02:19:35;;;;;;;27.65;24.95;;;;;;;17.09;100.00;101452.03;5034568;28;20065;-49
2023/09/08 02:22:01;;;;;;;29.52;26.63;;;;;;;17.18;100.00;101462.22;5027522;28;20042;-48
2023/09/08 02:24:26;;;;;;;27.27;24.48;;;;;;;17.03;100.00;101436.38;5018246;28;20123;-48
2023/09/08 02:26:52;;;;;;;30.40;27.30;;;;;;;17.43;100.00;101502.59;5046403;28;20473;-50
2023/09/08 02:29:18;;;;;;;28.38;25.48;;;;;;;17.43;100.00;101505.28;5055679;28;20030;-51
2023/09/08 02:31:44;;;;;;;29.88;26.92;;;;;;;17.29;100.00;101487.34;5029131;28;20037;-48
2023/09/08 02:34:11;;;;;;;29.40;26.65;;;;;;;17.00;100.00;101448.03;5031413;28;20029;-49
2023/09/08 02:36:36;;;;;;;31.83;28.42;;;;;;;16.95;100.00;101431.44;5029081;28;20044;-50
2023/09/08 02:39:01;;;;;;;32.30;29.05;;;;;;;16.93;100.00;101432.47;5019515;28;20120;-52
2023/09/08 02:41:27;;;;;;;30.95;27.60;;;;;;;17.31;100.00;101500.56;5008570;28;20483;-51
2023/09/08 02:43:52;;;;;;;29.40;26.40;;;;;;;17.30;100.00;101507.72;5013827;28;20034;-51
2023/09/08 02:46:17;;;;;;;31.50;28.50;;;;;;;16.83;100.00;101426.72;5027318;28;20065;-48
2023/09/08 02:48:43;;;;;;;30.63;27.50;;;;;;;17.25;100.00;101499.06;5010322;28;20061;-48
2023/09/08 02:51:08;;;;;;;32.92;29.63;;;;;;;16.86;100.00;101430.09;5014615;28;20045;-48
2023/09/08 02:53:33;;;;;;;30.88;27.85;;;;;;;17.26;100.00;101494.63;5034451;28;20038;-52
2023/09/08 02:55:59;;;;;;;31.30;28.17;;;;;;;17.27;100.00;101496.34;5014846;28;20077;-48
2023/09/08 02:58:25;;;;;;;30.63;27.48;;;;;;;17.23;100.00;101497.41;5011740;28;20025;-49
2023/09/08 03:00:53;;;;;;;30.80;27.70;;;;;;;16.76;100.00;101409.31;5040299;28;20068;-51
2023/09/08 03:03:19;;;;;;;29.98;26.92;;;;;;;16.34;100.00;101341.34;5025309;28;20114;-51
2023/09/08 03:05:44;;;;;;;32.45;29.45;;;;;;;17.26;100.00;101491.94;5011389;28;20121;-54
2023/09/08 03:08:10;;;;;;;30.33;27.08;;;;;;;17.25;100.00;101496.41;5008892;28;20068;-49
2023/09/08 03:10:35;;;;;;;30.95;27.80;;;;;;;17.20;100.00;101490.47;5029764;28;20061;-50
2023/09/08 03:13:01;;;;;;;29.30;26.52;;;;;;;16.79;100.00;101418.03;5022304;28;20049;-49
2023/09/08 03:15:29;;;;;;;30.15;27.33;;;;;;;17.16;100.00;101486.22;5036176;28;20034;-51
2023/09/08 03:17:55;;;;;;;31.75;28.58;;;;;;;16.79;100.00;101430.44;5015547;28;20033;-51
2023/09/08 03:20:21;;;;;;;31.30;28.13;;;;;;;17.11;100.00;101495.34;5010275;28;20079;-52
2023/09/08 03:22:47;;;;;;;30.98;27.98;;;;;;;17.08;100.00;101488.41;5012665;28;20033;-53
2023/09/08 03:25:15;;;;;;;30.80;27.38;;;;;;;17.04;100.00;101491.28;5007104;28;20497;-51
2023/09/08 03:27:40;;;;;;;31.02;27.95;;;;;;;16.78;100.00;101447.34;5042866;28;20049;-50
2023/09/08 03:30:06;;;;;;;30.42;27.42;;;;;;;16.93;100.00;101494.44;5040951;28;20396;-53
2023/09/08 03:32:32;;;;;;;30.40;27.35;;;;;;;16.93;100.00;101480.31;5002996;28;20041;-54
2023/09/08 03:34:57;;;;;;;30.40;27.33;;;;;;;16.83;100.00;101464.81;5031115;28;20130;-50
2023/09/08 03:37:22;;;;;;;32.03;28.77;;;;;;;16.87;100.00;101473.47;5018600;28;20041;-51
2023/09/08 03:39:48;;;;;;;33.30;29.83;;;;;;;16.83;100.00;101477.25;5066305;28;20066;-48
2023/09/08 03:42:13;;;;;;;31.77;28.52;;;;;;;16.80;100.00;101472.94;5042792;28;20087;-50
2023/09/08 03:44:38;;;;;;;33.45;30.13;;;;;;;16.68;100.00;101456.69;5030782;28;20030;-48
2023/09/08 03:47:05;;;;;;;32.05;28.95;;;;;;;16.78;100.00;101484.59;5028986;28;20061;-50
2023/09/08 03:49:30;;;;;;;31.10;28.08;;;;;;;16.73;100.00;101467.97;5027428;28;20419;-51
2023/09/08 03:51:55;;;;;;;34.17;30.65;;;;;;;16.31;100.00;101399.94;5022787;28;20065;-48
2023/09/08 03:54:21;;;;;;;32.40;29.13;;;;;;;16.38;100.00;101413.78;5034185;28;20033;-52
2023/09/08 03:56:46;;;;;;;32.67;29.52;;;;;;;16.68;100.00;101465.53;5026591;28;20075;-50
2023/09/08 03:59:11;;;;;;;32.40;29.20;;;;;;;16.54;100.00;101445.88;5054308;28;20036;-50
2023/09/08 04:01:37;;;;;;;32.67;29.17;;;;;;;16.36;100.00;101406.84;5014628;28;20234;-51
2023/09/08 04:04:02;;;;;;;32.90;28.77;;;;;;;16.64;100.00;101458.63;5028642;28;20092;-47
2023/09/08 04:06:28;;;;;;;30.38;27.27;;;;;;;16.64;100.00;101460.41;5020548;28;20517;-53
2023/09/08 04:08:53;;;;;;;31.23;28.00;;;;;;;16.30;100.00;101408.84;5032859;28;20187;-50
2023/09/08 04:11:19;;;;;;;31.83;28.73;;;;;;;16.65;100.00;101473.66;5030675;28;20040;-49
2023/09/08 04:13:44;;;;;;;32.17;28.88;;;;;;;15.95;100.00;101359.16;5032689;28;20128;-52
2023/09/08 04:16:10;;;;;;;32.38;28.98;;;;;;;16.62;100.00;101476.47;5038887;28;20033;-50
2023/09/08 04:18:35;;;;;;;32.33;29.00;;;;;;;16.43;100.00;101451.66;5027313;28;20053;-49
2023/09/08 04:21:00;;;;;;;31.05;27.95;;;;;;;16.62;100.00;101484.44;5019292;28;20482;-49
2023/09/08 04:23:26;;;;;;;30.75;27.70;;;;;;;16.60;100.00;101477.47;5016292;28;20065;-53
2023/09/08 04:25:51;;;;;;;32.72;29.25;;;;;;;16.59;100.00;101470.41;5017408;28;20117;-50
2023/09/08 04:28:16;;;;;;;30.73;27.73;;;;;;;16.56;100.00;101487.38;5046595;28;20516;-49
2023/09/08 04:30:42;;;;;;;30.40;27.58;;;;;;;16.54;100.00;101491.91;5035635;28;20092;-48
2023/09/08 04:33:07;;;;;;;30.38;27.40;;;;;;;16.46;100.00;101470.09;5020603;28;20095;-50
2023/09/08 04:35:32;;;;;;;31.73;28.42;;;;;;;16.45;100.00;101487.00;5015219;28;20066;-52
2023/09/08 04:37:57;;;;;;;31.65;28.45;;;;;;;16.44;100.00;101479.06;5012580;28;20036;-53
2023/09/08 04:40:23;;;;;;;31.63;28.40;;;;;;;16.39;100.00;101478.44;5013371;28;20084;-51
2023/09/08 04:42:48;;;;;;;31.48;28.17;;;;;;;16.41;100.00;101484.53;5013125;28;20037;-50
2023/09/08 04:45:14;;;;;;;30.25;27.17;;;;;;;16.42;100.00;101479.16;5017113;28;20046;-53
2023/09/08 04:47:39;;;;;;;32.33;26.75;;;;;;;16.03;100.00;101403.94;5037219;28;20137;-50
2023/09/08 04:50:05;;;;;;;30.77;27.65;;;;;;;16.50;100.00;101490.28;5038260;28;20378;-51
2023/09/08 04:52:30;;;;;;;30.05;26.83;;;;;;;16.42;100.00;101472.97;5018336;28;20445;-48
2023/09/08 04:54:55;;;;;;;31.10;27.98;;;;;;;16.52;100.00;101487.56;5027388;28;20033;-50
2023/09/08 04:57:21;;;;;;;29.38;26.35;;;;;;;16.48;100.00;101475.34;5019738;28;20477;-51
2023/09/08 04:59:46;;;;;;;29.85;26.65;;;;;;;16.43;100.00;101474.72;5028950;28;20035;-51
2023/09/08 05:02:11;;;;;;;30.98;27.77;;;;;;;16.39;100.00;101481.94;5020388;28;20037;-50
2023/09/08 05:04:37;;;;;;;33.15;29.38;;;;;;;16.27;100.00;101463.91;5024841;28;20037;-48
2023/09/08 05:07:02;;;;;;;30.83;27.52;;;;;;;16.06;100.00;101431.22;5031909;28;20616;-50
2023/09/08 05:09:27;;;;;;;29.88;26.50;;;;;;;16.03;100.00;101435.81;5010568;28;20072;-50
2023/09/08 05:11:53;;;;;;;31.60;28.20;;;;;;;16.30;100.00;101491.22;5032236;28;20317;-51
2023/09/08 05:14:18;;;;;;;28.33;25.63;;;;;;;16.38;100.00;101492.63;5033519;28;20045;-50
2023/09/08 05:16:48;;;;;;;28.60;25.63;;;;;;;16.37;100.00;101489.16;5018138;28;20116;-50
2023/09/08 05:19:14;;;;;;;30.57;27.40;;;;;;;15.98;100.00;101419.22;5023750;28;20480;-50
2023/09/08 05:21:40;;;;;;;31.30;28.13;;;;;;;16.36;100.00;101475.91;5013086;28;20368;-51
2023/09/08 05:24:05;;;;;;;29.75;26.75;;;;;;;16.39;100.00;101503.22;5028940;28;20490;-48
2023/09/08 05:26:31;;;;;;;31.98;28.77;;;;;;;16.37;100.00;101491.81;5033505;28;20478;-51
2023/09/08 05:28:56;;;;;;;32.85;29.40;;;;;;;16.41;100.00;101500.47;5014718;28;20037;-50
2023/09/08 05:31:22;;;;;;;31.45;28.35;;;;;;;16.01;100.00;101419.97;5014905;28;20048;-48
2023/09/08 05:33:47;;;;;;;30.42;27.33;;;;;;;16.41;100.00;101503.13;5024781;28;20038;-51
2023/09/08 05:36:13;;;;;;;34.20;29.05;;;;;;;15.99;100.00;101426.28;5024223;28;20065;-49
2023/09/08 05:38:38;;;;;;;32.83;29.40;;;;;;;16.39;100.00;101491.72;5031436;28;20109;-51
2023/09/08 05:41:03;;;;;;;30.00;26.80;;;;;;;16.43;100.00;101501.28;5025958;28;20029;-49
2023/09/08 05:43:29;;;;;;;30.25;27.05;;;;;;;16.05;100.00;101432.16;5050107;28;20052;-49
2023/09/08 05:45:54;;;;;;;30.65;27.55;;;;;;;16.18;100.00;101443.09;5019846;28;20394;-51
2023/09/08 05:48:19;;;;;;;30.50;27.27;;;;;;;16.46;100.00;101501.16;5049103;28;20333;-50
2023/09/08 05:50:45;;;;;;;29.67;26.63;;;;;;;16.58;100.00;101504.09;5012613;28;20033;-55
2023/09/08 05:53:10;;;;;;;29.67;26.58;;;;;;;16.68;100.00;101504.53;5048783;28;20061;-49
2023/09/08 05:55:36;;;;;;;29.98;26.88;;;;;;;16.38;100.00;101444.81;5012089;28;20076;-53
2023/09/08 05:58:01;;;;;;;31.35;27.80;;;;;;;16.83;100.00;101506.47;5012528;28;20498;-51
2023/09/08 06:00:27;;;;;;;29.75;26.70;;;;;;;16.85;100.00;101500.16;5019917;28;20048;-53
2023/09/08 06:02:52;;;;;;;28.38;25.50;;;;;;;16.95;100.00;101511.22;5030882;28;20478;-52
2023/09/08 06:05:17;;;;;;;28.85;26.05;;;;;;;17.05;100.00;101506.28;5025089;28;20544;-51
2023/09/08 06:07:43;;;;;;;27.63;24.40;;;;;;;17.16;100.00;101518.13;5012089;28;20132;-50
2023/09/08 06:10:09;;;;;;;26.20;23.52;;;;;;;17.23;100.00;101516.03;5027164;28;20037;-47
2023/09/08 06:12:34;;;;;;;28.08;25.55;;;;;;;17.33;100.00;101517.31;5026290;28;20037;-48
2023/09/08 06:15:03;;;;;;;27.75;24.83;;;;;;;17.38;100.00;101516.16;5029448;28;20467;-46
2023/09/08 06:17:28;;;;;;;28.38;25.52;;;;;;;17.41;100.00;101510.69;5032114;28;20041;-51
2023/09/08 06:19:53;;;;;;;27.02;24.30;;;;;;;17.60;100.00;101531.94;5032896;28;20037;-48
2023/09/08 06:22:19;;;;;;;27.23;24.63;;;;;;;17.78;100.00;101527.47;5032647;28;20052;-48
2023/09/08 06:24:44;;;;;;;26.27;23.63;;;;;;;17.88;100.00;101523.41;5047145;28;20030;-50
2023/09/08 06:27:11;;;;;;;26.73;24.02;;;;;;;17.55;100.00;101445.25;5013971;28;20041;-49
2023/09/08 06:29:36;;;;;;;26.02;23.48;;;;;;;17.99;100.00;101510.38;5027016;28;20113;-48
2023/09/08 06:32:02;;;;;;;26.60;23.98;;;;;;;17.72;100.00;101453.22;5023445;28;20074;-49
2023/09/08 06:34:27;;;;;;;25.98;23.35;;;;;;;17.85;100.00;101447.22;5018939;28;20040;-49
2023/09/08 06:36:52;;;;;;;23.58;21.17;;;;;;;18.42;100.00;101496.50;5031934;28;20452;-48
2023/09/08 06:39:18;;;;;;;23.33;21.02;;;;;;;18.73;100.00;101516.19;5036864;28;20038;-47
2023/09/08 06:41:43;;;;;;;24.35;21.75;;;;;;;18.90;100.00;101516.97;5010529;28;20403;-48
2023/09/08 06:44:08;;;;;;;24.08;21.58;;;;;;;19.08;100.00;101515.94;5011687;28;20044;-50
2023/09/08 06:46:34;;;;;;;23.35;21.05;;;;;;;19.22;100.00;101528.47;4994451;28;20065;-46
2023/09/08 06:48:59;;;;;;;23.48;20.48;;;;;;;19.16;100.00;101507.47;5011501;28;20128;-50
2023/09/08 06:51:24;;;;;;;24.15;21.55;;;;;;;19.35;100.00;101532.16;5011721;28;20062;-50
2023/09/08 06:53:56;;;;;;;25.10;22.40;;;;;;;19.06;100.00;101475.13;5009288;28;20139;-51
2023/09/08 06:56:22;;;;;;;25.98;22.23;;;;;;;19.34;100.00;101511.75;5046676;28;20046;-48
2023/09/08 06:58:47;;;;;;;24.92;22.23;;;;;;;19.56;100.00;101536.28;5031185;28;20561;-49
2023/09/08 07:01:13;;;;;;;23.77;21.33;;;;;;;19.62;100.00;101540.41;5031300;28;20100;-48
2023/09/08 07:03:38;;;;;;;25.10;22.42;;;;;;;19.72;100.00;101543.41;5031462;28;20061;-48
2023/09/08 07:06:03;;;;;;;22.73;20.35;;;;;;;19.38;100.00;101462.56;5031814;28;20061;-48
2023/09/08 07:08:29;;;;;;;23.95;21.45;;;;;;;19.93;100.00;101528.75;5027764;28;20081;-48
2023/09/08 07:10:54;;;;;;;23.00;20.85;;;;;;;19.72;100.00;101480.16;5011609;28;20034;-51
2023/09/08 07:13:20;;;;;;;23.38;20.88;;;;;;;20.14;100.00;101522.97;5011562;28;20046;-50
2023/09/08 07:15:45;;;;;;;24.13;21.70;;;;;;;20.00;100.00;101485.53;5011817;28;20038;-47
2023/09/08 07:18:10;;;;;;;24.38;20.30;;;;;;;20.47;100.00;101532.56;4994080;28;20395;-46
2023/09/08 07:20:36;;;;;;;23.27;20.98;;;;;;;20.58;100.00;101546.97;5011501;28;20075;-47
2023/09/08 07:23:01;;;;;;;22.55;20.20;;;;;;;20.53;100.00;101511.63;5011541;28;20112;-46
2023/09/08 07:25:26;;;;;;;22.33;20.13;;;;;;;20.76;100.00;101528.91;5012977;28;20041;-47
2023/09/08 07:27:53;;;;;;;23.10;20.70;;;;;;;20.89;100.00;101528.97;5015446;28;20483;-51
2023/09/08 07:30:19;;;;;;;23.27;20.67;;;;;;;20.50;100.00;101434.28;5015509;28;20042;-49
2023/09/08 07:32:44;;;;;;;22.98;20.70;;;;;;;20.92;100.00;101494.00;5014262;28;20495;-48
2023/09/08 07:35:13;;;;;;;22.75;20.48;;;;;;;21.34;100.00;101550.09;5015037;28;20040;-51
2023/09/08 07:37:40;;;;;;;21.45;19.17;;;;;;;21.46;100.00;101543.06;5015054;28;20038;-47
2023/09/08 07:40:06;;;;;;;20.95;18.95;;;;;;;21.70;100.00;101553.03;5015086;28;20034;-48
2023/09/08 07:42:31;;;;;;;22.52;20.52;;;;;;;21.98;100.00;101557.38;5014233;28;20030;-47
2023/09/08 07:44:57;;;;;;;20.85;18.92;;;;;;;22.20;100.00;101556.78;5015225;28;20325;-47
2023/09/08 07:47:22;;;;;;;22.60;20.23;;;;;;;22.13;100.00;101493.81;5015015;28;20471;-47
2023/09/08 07:49:47;;;;;;;20.48;18.58;;;;;;;22.55;100.00;101509.56;5014550;28;20034;-51
2023/09/08 07:52:13;;;;;;;21.45;19.33;;;;;;;23.38;100.00;101567.03;5014920;28;20096;-49
2023/09/08 07:54:38;;;;;;;20.77;17.33;;;;;;;23.65;100.00;101516.59;5030044;28;20026;-49
2023/09/08 07:57:04;;;;;;;21.10;18.98;;;;;;;24.44;100.00;101575.84;5015030;28;20038;-50
2023/09/08 07:59:29;;;;;;;19.15;17.27;;;;;;;25.00;100.00;101562.41;5024416;28;20379;-48
2023/09/08 08:01:55;;;;;;;19.42;17.50;;;;;;;25.71;100.00;101586.16;5034543;28;20044;-49
2023/09/08 08:04:20;;;;;;;21.30;17.40;;;;;;;25.99;100.00;101544.19;5030654;28;20044;-53
2023/09/08 08:06:47;;;;;;;19.55;17.58;;;;;;;26.87;100.00;101587.78;5031607;28;20394;-48
2023/09/08 08:09:12;;;;;;;19.80;17.40;;;;;;;27.11;100.00;101569.38;5031329;28;20136;-46
2023/09/08 08:11:38;;;;;;;19.05;17.33;;;;;;;27.55;100.00;101595.97;5031772;28;20152;-52
2023/09/08 08:14:03;;;;;;;21.92;17.65;;;;;;;27.61;100.00;101557.50;5031822;28;20423;-49
2023/09/08 08:16:28;;;;;;;19.65;17.75;;;;;;;28.38;100.00;101609.75;5031570;28;20036;-50
2023/09/08 08:18:54;;;;;;;17.65;15.88;;;;;;;28.25;100.00;101567.75;5031773;28;20111;-51
2023/09/08 08:21:19;;;;;;;20.58;17.55;;;;;;;28.70;100.00;101597.72;5031604;28;20116;-46
2023/09/08 08:23:45;;;;;;;17.40;15.75;;;;;;;28.54;100.00;101552.28;5031699;28;20180;-51
2023/09/08 08:26:10;;;;;;;17.92;16.27;;;;;;;29.28;100.00;101625.44;5031449;28;20025;-48
2023/09/08 08:28:35;;;;;;;18.48;16.13;;;;;;;29.40;100.00;101616.09;5013930;28;20134;-47
2023/09/08 08:31:01;;;;;;;18.42;16.60;;;;;;;29.39;100.00;101579.97;5013918;28;20402;-53
2023/09/08 08:33:26;;;;;;;19.30;17.27;;;;;;;29.85;100.00;101621.50;5031244;28;20045;-47
2023/09/08 08:35:53;;;;;;;18.05;16.25;;;;;;;29.87;100.00;101592.34;5031419;28;20034;-48
2023/09/08 08:38:19;;;;;;;18.60;16.50;;;;;;;29.76;100.00;101563.56;5046950;28;20033;-48
2023/09/08 08:40:45;;;;;;;17.30;15.63;;;;;;;30.33;100.00;101608.31;5031317;28;20037;-48
2023/09/08 08:43:10;;;;;;;19.73;17.45;;;;;;;30.42;100.00;101561.22;5031676;28;20489;-48
2023/09/08 08:45:38;;;;;;;20.92;17.70;;;;;;;30.61;100.00;101590.03;5013647;28;20041;-52
2023/09/08 08:48:04;;;;;;;18.08;16.45;;;;;;;31.01;100.00;101625.63;5014809;28;20049;-48
2023/09/08 08:50:32;;;;;;;17.60;15.80;;;;;;;30.88;100.00;101583.56;5013630;28;20043;-49
2023/09/08 08:52:57;;;;;;;23.70;16.88;;;;;;;31.38;100.00;101613.53;5031724;28;20037;-50
2023/09/08 08:55:28;;;;;;;24.50;17.30;;;;;;;31.22;100.00;101581.69;5047012;28;20033;-50
2023/09/08 08:57:54;;;;;;;20.30;18.25;;;;;;;31.51;100.00;101631.09;5031428;28;20026;-46
2023/09/08 09:00:19;;;;;;;20.15;16.17;;;;;;;31.19;100.00;101582.00;5014575;28;20107;-47
2023/09/08 09:02:49;;;;;;;28.40;15.77;;;;;;;31.65;100.00;101627.72;5032405;28;20425;-48
2023/09/08 09:05:14;;;;;;;15.70;14.20;;;;;;;32.17;100.00;101632.91;5014550;28;20065;-46
2023/09/08 09:07:42;;;;;;;15.80;14.40;;;;;;;32.39;100.00;101587.75;5014117;28;20076;-46
2023/09/08 09:10:07;;;;;;;16.92;15.13;;;;;;;32.40;100.00;101603.91;5046968;28;20029;-47
2023/09/08 09:12:33;;;;;;;18.08;15.95;;;;;;;32.55;100.00;101598.66;5030836;28;20490;-46
2023/09/08 09:15:00;;;;;;;16.77;14.98;;;;;;;33.10;100.00;101653.25;5046522;28;20045;-50
2023/09/08 09:17:26;;;;;;;15.35;13.95;;;;;;;33.34;100.00;101639.47;5015499;28;20470;-50
2023/09/08 09:20:13;;;;;;;15.38;13.13;;;;;;;33.54;100.00;101653.53;5030818;28;20021;-48
2023/09/08 09:22:39;;;;;;;14.40;12.93;;;;;;;33.44;100.00;101648.31;5013498;28;20602;-50
2023/09/08 09:25:07;;;;;;;13.68;12.27;;;;;;;33.30;100.00;101594.47;5031586;28;20117;-47
2023/09/08 09:27:35;;;;;;;14.95;13.40;;;;;;;33.95;100.00;101653.09;5013460;28;20071;-49
2023/09/08 09:30:00;;;;;;;16.83;13.43;;;;;;;34.14;100.00;101594.44;4996537;28;20045;-48
2023/09/08 09:32:29;;;;;;;15.90;14.35;;;;;;;34.27;100.00;101652.03;5012674;28;20044;-48
2023/09/08 09:34:56;;;;;;;11.18;10.18;;;;;;;34.54;100.00;101600.50;5030199;28;20025;-48
2023/09/08 09:37:22;;;;;;;14.27;11.73;;;;;;;34.76;100.00;101644.25;5045536;28;20037;-49
2023/09/08 09:39:54;;;;;;;12.32;10.88;;;;;;;34.79;100.00;101656.69;5030479;28;20117;-49
2023/09/08 09:42:22;;;;;;;16.05;11.50;;;;;;;34.11;100.00;101594.81;5012862;28;20040;-50
2023/09/08 09:44:48;;;;;;;11.77;10.25;;;;;;;34.61;100.00;101651.56;5030335;28;20419;-50
2023/09/08 09:47:14;;;;;;;13.68;12.38;;;;;;;34.81;100.00;101654.59;5029712;28;20080;-50
2023/09/08 09:49:44;;;;;;;17.60;13.32;;;;;;;35.08;100.00;101658.59;5012571;28;20465;-47
2023/09/08 09:52:14;;;;;;;12.60;11.27;;;;;;;34.79;100.00;101580.09;5030546;28;20032;-52
2023/09/08 09:54:41;;;;;;;11.30;9.40;;;;;;;35.16;100.00;101603.75;5030116;28;20040;-52
2023/09/08 09:57:09;;;;;;;15.13;11.50;;;;;;;35.61;100.00;101658.28;5046144;28;20034;-47
2023/09/08 09:59:34;;;;;;;13.80;11.18;;;;;;;35.70;100.00;101648.03;5029842;28;20044;-47
2023/09/08 10:02:00;;;;;;;12.23;10.93;;;;;;;35.57;100.00;101607.66;5030107;28;20041;-46
2023/09/08 10:04:26;;;;;;;13.35;11.98;;;;;;;35.87;100.00;101653.06;5029811;28;20079;-48
2023/09/08 10:06:52;;;;;;;11.60;10.57;;;;;;;35.97;100.00;101639.03;5046352;28;20470;-50
2023/09/08 10:09:21;;;;;;;13.35;11.90;;;;;;;36.25;100.00;101653.69;5012637;28;20060;-52
2023/09/08 10:11:48;;;;;;;13.00;11.73;;;;;;;36.36;100.00;101655.88;5029647;28;20037;-50
2023/09/08 10:14:17;;;;;;;11.52;10.30;;;;;;;36.46;100.00;101661.00;5028754;28;20095;-49
2023/09/08 10:16:49;;;;;;;11.13;10.13;;;;;;;36.77;100.00;101652.41;5012411;28;20041;-54
2023/09/08 10:19:16;;;;;;;12.48;9.50;;;;;;;37.25;100.00;101678.88;5045516;28;20030;-47
2023/09/08 10:21:45;;;;;;;9.77;8.40;;;;;;;37.03;100.00;101669.91;5034980;28;20033;-48
2023/09/08 10:24:24;;;;;;;9.52;7.75;;;;;;;37.26;100.00;101675.09;5044936;28;20033;-48
2023/09/08 10:27:05;;;;;;;10.80;8.27;;;;;;;37.49;100.00;101670.16;5029933;28;20426;-47
2023/09/08 10:29:31;;;;;;;9.30;8.40;;;;;;;37.07;100.00;101619.03;5029434;28;20061;-48
2023/09/08 10:31:57;;;;;;;8.50;7.53;;;;;;;37.12;100.00;101607.47;5012159;28;20033;-48
2023/09/08 10:34:24;;;;;;;11.57;8.65;;;;;;;37.46;100.00;101639.50;5029313;28;20036;-49
2023/09/08 10:36:49;;;;;;;11.25;8.13;;;;;;;37.45;100.00;101613.09;5046670;28;20037;-50
2023/09/08 10:39:41;;;;;;;10.85;9.02;;;;;;;37.76;100.00;101671.09;5011928;28;20033;-48
2023/09/08 10:42:16;;;;;;;9.07;8.20;;;;;;;37.80;100.00;101672.34;5029508;28;20449;-49
2023/09/08 10:44:41;;;;;;;8.15;6.75;;;;;;;38.27;99.91;101622.75;5022326;28;20386;-52
2023/09/08 10:47:07;;;;;;;9.07;8.20;;;;;;;38.85;96.90;101664.22;5028330;28;20038;-53
2023/09/08 10:49:36;;;;;;;13.10;9.43;;;;;;;38.44;97.94;101620.44;5011776;28;20034;-51
2023/09/08 10:52:09;;;;;;;7.35;6.22;;;;;;;38.57;99.21;101619.56;5044545;28;20041;-50
2023/09/08 10:54:48;;;;;;;8.35;6.93;;;;;;;38.53;97.42;101641.16;5020427;28;20041;-47
2023/09/08 10:57:15;;;;;;;9.10;6.63;;;;;;;38.54;100.00;101645.59;5029515;28;20028;-48